sensor_id;sensor_type;location;lat;lon;timestamp;P1;durP1;ratioP1;P2;durP2;ratioP2
12383;SDS011;6256;63.808;20.336;2023-07-31T00:02:03;9.95;;;6.25;;
12383;SDS011;6256;63.808;20.336;2023-07-31T00:04:29;9.15;;;6.30;;
12383;SDS011;6256;63.808;20.336;2023-07-31T00:06:55;10.43;;;6.03;;
12383;SDS011;6256;63.808;20.336;2023-07-31T00:09:20;8.50;;;6.13;;
12383;SDS011;6256;63.808;20.336;2023-07-31T00:11:46;6.38;;;5.70;;
12383;SDS011;6256;63.808;20.336;2023-07-31T00:14:12;11.15;;;5.88;;
12383;SDS011;6256;63.808;20.336;2023-07-31T00:16:37;7.70;;;5.97;;
12383;SDS011;6256;63.808;20.336;2023-07-31T00:19:03;7.75;;;6.57;;
12383;SDS011;6256;63.808;20.336;2023-07-31T00:21:29;8.32;;;6.18;;
12383;SDS011;6256;63.808;20.336;2023-07-31T00:23:54;7.22;;;6.07;;
12383;SDS011;6256;63.808;20.336;2023-07-31T00:26:20;8.75;;;6.93;;
12383;SDS011;6256;63.808;20.336;2023-07-31T00:28:46;11.38;;;7.68;;
12383;SDS011;6256;63.808;20.336;2023-07-31T00:31:11;10.07;;;7.63;;
12383;SDS011;6256;63.808;20.336;2023-07-31T00:33:37;12.77;;;7.60;;
12383;SDS011;6256;63.808;20.336;2023-07-31T00:36:03;10.70;;;7.35;;
12383;SDS011;6256;63.808;20.336;2023-07-31T00:38:29;10.25;;;7.18;;
12383;SDS011;6256;63.808;20.336;2023-07-31T00:40:54;9.70;;;6.65;;
12383;SDS011;6256;63.808;20.336;2023-07-31T00:43:20;8.85;;;6.45;;
12383;SDS011;6256;63.808;20.336;2023-07-31T00:45:46;7.45;;;6.53;;
12383;SDS011;6256;63.808;20.336;2023-07-31T00:48:11;8.55;;;6.75;;
12383;SDS011;6256;63.808;20.336;2023-07-31T00:50:37;10.00;;;7.68;;
12383;SDS011;6256;63.808;20.336;2023-07-31T00:53:04;10.23;;;7.18;;
12383;SDS011;6256;63.808;20.336;2023-07-31T00:55:29;10.20;;;7.70;;
12383;SDS011;6256;63.808;20.336;2023-07-31T00:57:55;11.07;;;7.10;;
12383;SDS011;6256;63.808;20.336;2023-07-31T01:00:21;9.60;;;7.45;;
12383;SDS011;6256;63.808;20.336;2023-07-31T01:02:48;10.10;;;7.60;;
12383;SDS011;6256;63.808;20.336;2023-07-31T01:05:15;10.73;;;7.75;;
12383;SDS011;6256;63.808;20.336;2023-07-31T01:07:45;10.80;;;7.97;;
12383;SDS011;6256;63.808;20.336;2023-07-31T01:10:20;10.93;;;7.78;;
12383;SDS011;6256;63.808;20.336;2023-07-31T01:12:51;12.38;;;7.68;;
12383;SDS011;6256;63.808;20.336;2023-07-31T01:15:18;10.13;;;7.53;;
12383;SDS011;6256;63.808;20.336;2023-07-31T01:17:44;10.88;;;7.57;;
12383;SDS011;6256;63.808;20.336;2023-07-31T01:20:21;14.32;;;8.32;;
12383;SDS011;6256;63.808;20.336;2023-07-31T01:22:59;11.13;;;7.53;;
12383;SDS011;6256;63.808;20.336;2023-07-31T01:25:46;11.43;;;8.32;;
12383;SDS011;6256;63.808;20.336;2023-07-31T01:28:33;10.55;;;7.28;;
12383;SDS011;6256;63.808;20.336;2023-07-31T01:31:25;9.88;;;6.97;;
12383;SDS011;6256;63.808;20.336;2023-07-31T01:33:54;9.90;;;7.15;;
12383;SDS011;6256;63.808;20.336;2023-07-31T01:36:23;10.05;;;7.47;;
12383;SDS011;6256;63.808;20.336;2023-07-31T01:38:50;12.18;;;7.60;;
12383;SDS011;6256;63.808;20.336;2023-07-31T01:41:17;11.68;;;7.32;;
12383;SDS011;6256;63.808;20.336;2023-07-31T01:43:44;9.60;;;6.93;;
12383;SDS011;6256;63.808;20.336;2023-07-31T01:46:10;11.85;;;6.82;;
12383;SDS011;6256;63.808;20.336;2023-07-31T01:48:36;16.70;;;6.70;;
12383;SDS011;6256;63.808;20.336;2023-07-31T01:51:02;8.68;;;6.72;;
12383;SDS011;6256;63.808;20.336;2023-07-31T01:53:31;12.30;;;6.97;;
12383;SDS011;6256;63.808;20.336;2023-07-31T01:55:57;10.70;;;6.88;;
12383;SDS011;6256;63.808;20.336;2023-07-31T01:58:23;8.50;;;6.35;;
12383;SDS011;6256;63.808;20.336;2023-07-31T02:00:49;9.52;;;6.45;;
12383;SDS011;6256;63.808;20.336;2023-07-31T02:03:14;11.70;;;6.53;;
12383;SDS011;6256;63.808;20.336;2023-07-31T02:05:49;9.95;;;6.72;;
12383;SDS011;6256;63.808;20.336;2023-07-31T02:08:15;12.30;;;6.57;;
12383;SDS011;6256;63.808;20.336;2023-07-31T02:10:41;8.38;;;6.65;;
12383;SDS011;6256;63.808;20.336;2023-07-31T02:13:07;9.48;;;7.10;;
12383;SDS011;6256;63.808;20.336;2023-07-31T02:15:33;11.73;;;7.43;;
12383;SDS011;6256;63.808;20.336;2023-07-31T02:17:59;14.40;;;6.70;;
12383;SDS011;6256;63.808;20.336;2023-07-31T02:20:25;10.48;;;6.90;;
12383;SDS011;6256;63.808;20.336;2023-07-31T02:22:51;11.32;;;6.90;;
12383;SDS011;6256;63.808;20.336;2023-07-31T02:25:16;10.13;;;7.10;;
12383;SDS011;6256;63.808;20.336;2023-07-31T02:27:42;10.82;;;5.88;;
12383;SDS011;6256;63.808;20.336;2023-07-31T02:30:08;6.85;;;6.07;;
12383;SDS011;6256;63.808;20.336;2023-07-31T02:32:34;9.55;;;6.35;;
12383;SDS011;6256;63.808;20.336;2023-07-31T02:35:00;7.72;;;6.72;;
12383;SDS011;6256;63.808;20.336;2023-07-31T02:37:25;10.30;;;6.80;;
12383;SDS011;6256;63.808;20.336;2023-07-31T02:39:53;9.95;;;6.95;;
12383;SDS011;6256;63.808;20.336;2023-07-31T02:42:19;8.98;;;6.82;;
12383;SDS011;6256;63.808;20.336;2023-07-31T02:44:45;8.40;;;6.30;;
12383;SDS011;6256;63.808;20.336;2023-07-31T02:47:10;8.85;;;6.55;;
12383;SDS011;6256;63.808;20.336;2023-07-31T02:49:36;7.18;;;5.88;;
12383;SDS011;6256;63.808;20.336;2023-07-31T02:52:02;9.02;;;7.22;;
12383;SDS011;6256;63.808;20.336;2023-07-31T02:54:28;8.85;;;6.07;;
12383;SDS011;6256;63.808;20.336;2023-07-31T02:56:53;10.90;;;6.53;;
12383;SDS011;6256;63.808;20.336;2023-07-31T02:59:19;11.20;;;6.63;;
12383;SDS011;6256;63.808;20.336;2023-07-31T03:01:45;10.25;;;6.47;;
12383;SDS011;6256;63.808;20.336;2023-07-31T03:04:11;8.63;;;6.28;;
12383;SDS011;6256;63.808;20.336;2023-07-31T03:06:36;13.30;;;7.07;;
12383;SDS011;6256;63.808;20.336;2023-07-31T03:09:02;10.68;;;7.43;;
12383;SDS011;6256;63.808;20.336;2023-07-31T03:11:28;11.85;;;7.22;;
12383;SDS011;6256;63.808;20.336;2023-07-31T03:13:54;9.10;;;6.63;;
12383;SDS011;6256;63.808;20.336;2023-07-31T03:16:20;9.77;;;6.25;;
12383;SDS011;6256;63.808;20.336;2023-07-31T03:18:45;12.38;;;7.45;;
12383;SDS011;6256;63.808;20.336;2023-07-31T03:21:12;11.68;;;7.95;;
12383;SDS011;6256;63.808;20.336;2023-07-31T03:23:37;11.55;;;7.38;;
12383;SDS011;6256;63.808;20.336;2023-07-31T03:26:06;11.27;;;7.00;;
12383;SDS011;6256;63.808;20.336;2023-07-31T03:28:32;11.80;;;6.80;;
12383;SDS011;6256;63.808;20.336;2023-07-31T03:30:58;11.43;;;6.93;;
12383;SDS011;6256;63.808;20.336;2023-07-31T03:33:24;9.95;;;6.90;;
12383;SDS011;6256;63.808;20.336;2023-07-31T03:35:50;9.60;;;6.45;;
12383;SDS011;6256;63.808;20.336;2023-07-31T03:38:16;12.65;;;7.05;;
12383;SDS011;6256;63.808;20.336;2023-07-31T03:40:42;11.77;;;6.38;;
12383;SDS011;6256;63.808;20.336;2023-07-31T03:43:07;10.90;;;6.70;;
12383;SDS011;6256;63.808;20.336;2023-07-31T03:45:33;10.10;;;7.00;;
12383;SDS011;6256;63.808;20.336;2023-07-31T03:47:59;9.13;;;6.60;;
12383;SDS011;6256;63.808;20.336;2023-07-31T03:50:24;10.13;;;6.90;;
12383;SDS011;6256;63.808;20.336;2023-07-31T03:52:50;12.13;;;7.07;;
12383;SDS011;6256;63.808;20.336;2023-07-31T03:55:17;13.35;;;7.43;;
12383;SDS011;6256;63.808;20.336;2023-07-31T03:57:43;9.48;;;6.72;;
12383;SDS011;6256;63.808;20.336;2023-07-31T04:00:09;10.88;;;7.18;;
12383;SDS011;6256;63.808;20.336;2023-07-31T04:02:35;10.38;;;7.45;;
12383;SDS011;6256;63.808;20.336;2023-07-31T04:05:01;11.15;;;7.93;;
12383;SDS011;6256;63.808;20.336;2023-07-31T04:07:26;14.02;;;8.60;;
12383;SDS011;6256;63.808;20.336;2023-07-31T04:09:52;13.90;;;8.80;;
12383;SDS011;6256;63.808;20.336;2023-07-31T04:12:18;11.88;;;7.47;;
12383;SDS011;6256;63.808;20.336;2023-07-31T04:14:44;11.82;;;7.13;;
12383;SDS011;6256;63.808;20.336;2023-07-31T04:17:09;11.23;;;8.00;;
12383;SDS011;6256;63.808;20.336;2023-07-31T04:19:35;9.60;;;6.53;;
12383;SDS011;6256;63.808;20.336;2023-07-31T04:22:01;10.23;;;6.80;;
12383;SDS011;6256;63.808;20.336;2023-07-31T04:24:26;9.50;;;7.30;;
12383;SDS011;6256;63.808;20.336;2023-07-31T04:26:52;10.35;;;7.00;;
12383;SDS011;6256;63.808;20.336;2023-07-31T04:29:18;10.95;;;7.00;;
12383;SDS011;6256;63.808;20.336;2023-07-31T04:31:44;9.15;;;6.93;;
12383;SDS011;6256;63.808;20.336;2023-07-31T04:34:10;9.02;;;6.95;;
12383;SDS011;6256;63.808;20.336;2023-07-31T04:36:36;12.30;;;7.63;;
12383;SDS011;6256;63.808;20.336;2023-07-31T04:39:02;10.50;;;7.43;;
12383;SDS011;6256;63.808;20.336;2023-07-31T04:41:29;11.55;;;7.47;;
12383;SDS011;6256;63.808;20.336;2023-07-31T04:43:55;11.52;;;7.50;;
12383;SDS011;6256;63.808;20.336;2023-07-31T04:46:20;10.32;;;8.15;;
12383;SDS011;6256;63.808;20.336;2023-07-31T04:48:46;9.98;;;7.15;;
12383;SDS011;6256;63.808;20.336;2023-07-31T04:51:12;11.90;;;7.15;;
12383;SDS011;6256;63.808;20.336;2023-07-31T04:53:37;11.38;;;7.45;;
12383;SDS011;6256;63.808;20.336;2023-07-31T04:56:03;9.48;;;7.43;;
12383;SDS011;6256;63.808;20.336;2023-07-31T04:58:29;7.78;;;6.43;;
12383;SDS011;6256;63.808;20.336;2023-07-31T05:00:55;8.45;;;6.22;;
12383;SDS011;6256;63.808;20.336;2023-07-31T05:03:20;8.85;;;6.35;;
12383;SDS011;6256;63.808;20.336;2023-07-31T05:05:46;11.05;;;6.80;;
12383;SDS011;6256;63.808;20.336;2023-07-31T05:08:12;8.18;;;5.88;;
12383;SDS011;6256;63.808;20.336;2023-07-31T05:10:38;7.95;;;6.15;;
12383;SDS011;6256;63.808;20.336;2023-07-31T05:13:03;7.25;;;5.55;;
12383;SDS011;6256;63.808;20.336;2023-07-31T05:15:29;7.45;;;5.80;;
12383;SDS011;6256;63.808;20.336;2023-07-31T05:17:55;9.40;;;6.80;;
12383;SDS011;6256;63.808;20.336;2023-07-31T05:20:21;7.88;;;5.93;;
12383;SDS011;6256;63.808;20.336;2023-07-31T05:22:47;7.72;;;5.47;;
12383;SDS011;6256;63.808;20.336;2023-07-31T05:25:13;7.00;;;5.38;;
12383;SDS011;6256;63.808;20.336;2023-07-31T05:27:38;6.53;;;4.93;;
12383;SDS011;6256;63.808;20.336;2023-07-31T05:30:04;5.43;;;4.93;;
12383;SDS011;6256;63.808;20.336;2023-07-31T05:32:31;7.45;;;5.03;;
12383;SDS011;6256;63.808;20.336;2023-07-31T05:34:56;7.13;;;5.28;;
12383;SDS011;6256;63.808;20.336;2023-07-31T05:37:22;6.68;;;4.85;;
12383;SDS011;6256;63.808;20.336;2023-07-31T05:39:48;5.93;;;4.30;;
12383;SDS011;6256;63.808;20.336;2023-07-31T05:42:14;4.40;;;3.97;;
12383;SDS011;6256;63.808;20.336;2023-07-31T05:44:39;5.30;;;3.95;;
12383;SDS011;6256;63.808;20.336;2023-07-31T05:47:05;4.78;;;3.33;;
12383;SDS011;6256;63.808;20.336;2023-07-31T05:49:31;5.03;;;3.88;;
12383;SDS011;6256;63.808;20.336;2023-07-31T05:51:57;3.97;;;3.50;;
12383;SDS011;6256;63.808;20.336;2023-07-31T05:54:23;5.25;;;3.60;;
12383;SDS011;6256;63.808;20.336;2023-07-31T05:56:48;4.13;;;3.72;;
12383;SDS011;6256;63.808;20.336;2023-07-31T05:59:15;5.15;;;3.55;;
12383;SDS011;6256;63.808;20.336;2023-07-31T06:01:41;3.70;;;3.20;;
12383;SDS011;6256;63.808;20.336;2023-07-31T06:04:07;4.68;;;3.30;;
12383;SDS011;6256;63.808;20.336;2023-07-31T06:06:33;5.07;;;3.78;;
12383;SDS011;6256;63.808;20.336;2023-07-31T06:08:59;4.38;;;3.47;;
12383;SDS011;6256;63.808;20.336;2023-07-31T06:11:25;6.07;;;3.53;;
12383;SDS011;6256;63.808;20.336;2023-07-31T06:13:51;5.20;;;3.63;;
12383;SDS011;6256;63.808;20.336;2023-07-31T06:16:16;4.00;;;3.00;;
12383;SDS011;6256;63.808;20.336;2023-07-31T06:18:42;4.18;;;3.42;;
12383;SDS011;6256;63.808;20.336;2023-07-31T06:21:08;5.85;;;3.65;;
12383;SDS011;6256;63.808;20.336;2023-07-31T06:23:34;3.88;;;3.33;;
12383;SDS011;6256;63.808;20.336;2023-07-31T06:26:00;3.28;;;2.95;;
12383;SDS011;6256;63.808;20.336;2023-07-31T06:28:29;3.35;;;3.05;;
12383;SDS011;6256;63.808;20.336;2023-07-31T06:30:55;5.10;;;3.10;;
12383;SDS011;6256;63.808;20.336;2023-07-31T06:33:21;4.13;;;3.08;;
12383;SDS011;6256;63.808;20.336;2023-07-31T06:35:47;4.05;;;2.95;;
12383;SDS011;6256;63.808;20.336;2023-07-31T06:38:13;3.65;;;3.00;;
12383;SDS011;6256;63.808;20.336;2023-07-31T06:40:38;3.53;;;2.97;;
12383;SDS011;6256;63.808;20.336;2023-07-31T06:43:05;3.63;;;3.05;;
12383;SDS011;6256;63.808;20.336;2023-07-31T06:45:35;2.95;;;2.63;;
12383;SDS011;6256;63.808;20.336;2023-07-31T06:48:02;3.10;;;2.80;;
12383;SDS011;6256;63.808;20.336;2023-07-31T06:50:29;3.10;;;2.80;;
12383;SDS011;6256;63.808;20.336;2023-07-31T06:52:55;3.83;;;3.53;;
12383;SDS011;6256;63.808;20.336;2023-07-31T06:55:21;3.60;;;3.30;;
12383;SDS011;6256;63.808;20.336;2023-07-31T06:57:47;4.10;;;3.03;;
12383;SDS011;6256;63.808;20.336;2023-07-31T07:00:14;3.50;;;3.17;;
12383;SDS011;6256;63.808;20.336;2023-07-31T07:02:40;3.97;;;2.67;;
12383;SDS011;6256;63.808;20.336;2023-07-31T07:05:07;2.78;;;2.58;;
12383;SDS011;6256;63.808;20.336;2023-07-31T07:07:33;2.78;;;2.53;;
12383;SDS011;6256;63.808;20.336;2023-07-31T07:09:59;3.20;;;2.72;;
12383;SDS011;6256;63.808;20.336;2023-07-31T07:12:25;3.10;;;2.80;;
12383;SDS011;6256;63.808;20.336;2023-07-31T07:14:55;3.13;;;2.85;;
12383;SDS011;6256;63.808;20.336;2023-07-31T07:17:20;4.22;;;2.92;;
12383;SDS011;6256;63.808;20.336;2023-07-31T07:19:47;5.28;;;3.20;;
12383;SDS011;6256;63.808;20.336;2023-07-31T07:22:13;3.28;;;2.95;;
12383;SDS011;6256;63.808;20.336;2023-07-31T07:24:39;3.35;;;3.10;;
12383;SDS011;6256;63.808;20.336;2023-07-31T07:27:04;4.32;;;3.25;;
12383;SDS011;6256;63.808;20.336;2023-07-31T07:29:31;3.50;;;2.80;;
12383;SDS011;6256;63.808;20.336;2023-07-31T07:31:56;6.13;;;3.20;;
12383;SDS011;6256;63.808;20.336;2023-07-31T07:34:22;4.05;;;2.90;;
12383;SDS011;6256;63.808;20.336;2023-07-31T07:36:50;4.68;;;3.13;;
12383;SDS011;6256;63.808;20.336;2023-07-31T07:39:16;3.72;;;2.80;;
12383;SDS011;6256;63.808;20.336;2023-07-31T07:41:41;4.82;;;2.80;;
12383;SDS011;6256;63.808;20.336;2023-07-31T07:44:07;3.90;;;2.65;;
12383;SDS011;6256;63.808;20.336;2023-07-31T07:46:33;3.00;;;2.70;;
12383;SDS011;6256;63.808;20.336;2023-07-31T07:48:59;3.08;;;2.80;;
12383;SDS011;6256;63.808;20.336;2023-07-31T07:51:24;3.00;;;2.70;;
12383;SDS011;6256;63.808;20.336;2023-07-31T07:53:50;3.78;;;2.45;;
12383;SDS011;6256;63.808;20.336;2023-07-31T07:56:16;4.13;;;3.20;;
12383;SDS011;6256;63.808;20.336;2023-07-31T07:58:42;3.45;;;2.90;;
12383;SDS011;6256;63.808;20.336;2023-07-31T08:01:07;3.13;;;2.83;;
12383;SDS011;6256;63.808;20.336;2023-07-31T08:03:33;4.10;;;2.65;;
12383;SDS011;6256;63.808;20.336;2023-07-31T08:05:59;3.35;;;3.05;;
12383;SDS011;6256;63.808;20.336;2023-07-31T08:08:25;5.07;;;3.28;;
12383;SDS011;6256;63.808;20.336;2023-07-31T08:10:51;3.22;;;2.88;;
12383;SDS011;6256;63.808;20.336;2023-07-31T08:13:17;3.97;;;2.70;;
12383;SDS011;6256;63.808;20.336;2023-07-31T08:15:43;2.95;;;2.67;;
12383;SDS011;6256;63.808;20.336;2023-07-31T08:18:09;2.72;;;2.50;;
12383;SDS011;6256;63.808;20.336;2023-07-31T08:20:36;3.25;;;2.58;;
12383;SDS011;6256;63.808;20.336;2023-07-31T08:23:02;3.13;;;2.50;;
12383;SDS011;6256;63.808;20.336;2023-07-31T08:25:28;3.15;;;2.85;;
12383;SDS011;6256;63.808;20.336;2023-07-31T08:27:54;3.42;;;2.88;;
12383;SDS011;6256;63.808;20.336;2023-07-31T08:30:20;4.00;;;2.35;;
12383;SDS011;6256;63.808;20.336;2023-07-31T08:32:46;3.55;;;2.55;;
12383;SDS011;6256;63.808;20.336;2023-07-31T08:35:12;2.83;;;2.60;;
12383;SDS011;6256;63.808;20.336;2023-07-31T08:37:38;4.38;;;2.60;;
12383;SDS011;6256;63.808;20.336;2023-07-31T08:40:04;3.00;;;2.42;;
12383;SDS011;6256;63.808;20.336;2023-07-31T08:42:31;2.67;;;2.47;;
12383;SDS011;6256;63.808;20.336;2023-07-31T08:44:57;2.38;;;2.17;;
12383;SDS011;6256;63.808;20.336;2023-07-31T08:47:25;3.83;;;2.35;;
12383;SDS011;6256;63.808;20.336;2023-07-31T08:49:52;3.72;;;2.25;;
12383;SDS011;6256;63.808;20.336;2023-07-31T08:52:19;3.50;;;2.70;;
12383;SDS011;6256;63.808;20.336;2023-07-31T08:54:45;2.85;;;2.65;;
12383;SDS011;6256;63.808;20.336;2023-07-31T08:57:12;2.17;;;1.98;;
12383;SDS011;6256;63.808;20.336;2023-07-31T08:59:38;2.55;;;2.35;;
12383;SDS011;6256;63.808;20.336;2023-07-31T09:02:06;3.00;;;2.70;;
12383;SDS011;6256;63.808;20.336;2023-07-31T09:04:33;2.38;;;2.17;;
12383;SDS011;6256;63.808;20.336;2023-07-31T09:07:00;2.85;;;2.53;;
12383;SDS011;6256;63.808;20.336;2023-07-31T09:09:29;2.35;;;2.15;;
12383;SDS011;6256;63.808;20.336;2023-07-31T09:11:56;1.92;;;1.77;;
12383;SDS011;6256;63.808;20.336;2023-07-31T09:14:23;2.33;;;2.10;;
12383;SDS011;6256;63.808;20.336;2023-07-31T09:16:51;2.20;;;2.00;;
12383;SDS011;6256;63.808;20.336;2023-07-31T09:19:28;1.80;;;1.70;;
12383;SDS011;6256;63.808;20.336;2023-07-31T09:21:58;2.92;;;2.00;;
12383;SDS011;6256;63.808;20.336;2023-07-31T09:24:32;2.33;;;1.90;;
12383;SDS011;6256;63.808;20.336;2023-07-31T09:26:59;1.83;;;1.60;;
12383;SDS011;6256;63.808;20.336;2023-07-31T09:29:26;2.08;;;1.70;;
12383;SDS011;6256;63.808;20.336;2023-07-31T09:31:53;5.13;;;2.10;;
12383;SDS011;6256;63.808;20.336;2023-07-31T09:34:19;2.53;;;2.10;;
12383;SDS011;6256;63.808;20.336;2023-07-31T09:36:53;3.10;;;2.00;;
12383;SDS011;6256;63.808;20.336;2023-07-31T09:39:19;2.00;;;1.80;;
12383;SDS011;6256;63.808;20.336;2023-07-31T09:41:53;2.50;;;2.30;;
12383;SDS011;6256;63.808;20.336;2023-07-31T09:44:20;2.30;;;1.95;;
12383;SDS011;6256;63.808;20.336;2023-07-31T09:46:46;2.35;;;2.15;;
12383;SDS011;6256;63.808;20.336;2023-07-31T09:49:12;2.20;;;2.00;;
12383;SDS011;6256;63.808;20.336;2023-07-31T09:51:40;2.10;;;1.90;;
12383;SDS011;6256;63.808;20.336;2023-07-31T09:54:16;2.38;;;1.95;;
12383;SDS011;6256;63.808;20.336;2023-07-31T09:56:43;3.90;;;2.10;;
12383;SDS011;6256;63.808;20.336;2023-07-31T09:59:13;2.92;;;2.10;;
12383;SDS011;6256;63.808;20.336;2023-07-31T10:01:41;2.03;;;1.73;;
12383;SDS011;6256;63.808;20.336;2023-07-31T10:04:09;2.38;;;1.73;;
12383;SDS011;6256;63.808;20.336;2023-07-31T10:06:36;2.95;;;1.92;;
12383;SDS011;6256;63.808;20.336;2023-07-31T10:09:04;3.30;;;2.10;;
12383;SDS011;6256;63.808;20.336;2023-07-31T10:11:41;2.58;;;2.00;;
12383;SDS011;6256;63.808;20.336;2023-07-31T10:14:09;2.25;;;2.03;;
12383;SDS011;6256;63.808;20.336;2023-07-31T10:16:37;2.53;;;1.90;;
12383;SDS011;6256;63.808;20.336;2023-07-31T10:19:05;2.15;;;1.83;;
12383;SDS011;6256;63.808;20.336;2023-07-31T10:21:33;2.53;;;2.22;;
12383;SDS011;6256;63.808;20.336;2023-07-31T10:24:02;2.45;;;1.83;;
12383;SDS011;6256;63.808;20.336;2023-07-31T10:26:29;4.15;;;1.77;;
12383;SDS011;6256;63.808;20.336;2023-07-31T10:28:57;2.05;;;1.77;;
12383;SDS011;6256;63.808;20.336;2023-07-31T10:31:24;2.55;;;1.90;;
12383;SDS011;6256;63.808;20.336;2023-07-31T10:33:50;1.67;;;1.38;;
12383;SDS011;6256;63.808;20.336;2023-07-31T10:36:18;2.75;;;1.58;;
12383;SDS011;6256;63.808;20.336;2023-07-31T10:38:45;1.50;;;1.40;;
12383;SDS011;6256;63.808;20.336;2023-07-31T10:41:14;1.52;;;1.33;;
12383;SDS011;6256;63.808;20.336;2023-07-31T10:43:40;1.83;;;1.48;;
12383;SDS011;6256;63.808;20.336;2023-07-31T10:46:06;1.70;;;1.55;;
12383;SDS011;6256;63.808;20.336;2023-07-31T10:48:36;1.92;;;1.80;;
12383;SDS011;6256;63.808;20.336;2023-07-31T10:51:06;2.33;;;1.80;;
12383;SDS011;6256;63.808;20.336;2023-07-31T10:53:34;2.10;;;1.67;;
12383;SDS011;6256;63.808;20.336;2023-07-31T10:56:03;1.67;;;1.35;;
12383;SDS011;6256;63.808;20.336;2023-07-31T10:58:31;1.75;;;1.42;;
12383;SDS011;6256;63.808;20.336;2023-07-31T11:01:01;1.70;;;1.60;;
12383;SDS011;6256;63.808;20.336;2023-07-31T11:06:35;1.40;;;1.30;;
12383;SDS011;6256;63.808;20.336;2023-07-31T11:09:01;1.48;;;1.38;;
12383;SDS011;6256;63.808;20.336;2023-07-31T11:11:27;1.83;;;1.38;;
12383;SDS011;6256;63.808;20.336;2023-07-31T11:13:53;1.15;;;1.05;;
12383;SDS011;6256;63.808;20.336;2023-07-31T11:16:20;0.90;;;0.90;;
12383;SDS011;6256;63.808;20.336;2023-07-31T11:18:47;1.10;;;1.00;;
12383;SDS011;6256;63.808;20.336;2023-07-31T11:21:15;1.10;;;1.00;;
12383;SDS011;6256;63.808;20.336;2023-07-31T11:23:46;1.45;;;1.10;;
12383;SDS011;6256;63.808;20.336;2023-07-31T11:26:20;1.08;;;1.00;;
12383;SDS011;6256;63.808;20.336;2023-07-31T11:28:48;1.17;;;1.00;;
12383;SDS011;6256;63.808;20.336;2023-07-31T11:31:14;0.80;;;0.80;;
12383;SDS011;6256;63.808;20.336;2023-07-31T11:33:41;1.00;;;0.90;;
12383;SDS011;6256;63.808;20.336;2023-07-31T11:36:09;1.58;;;1.05;;
12383;SDS011;6256;63.808;20.336;2023-07-31T11:38:42;1.35;;;1.10;;
12383;SDS011;6256;63.808;20.336;2023-07-31T11:41:08;1.45;;;1.10;;
12383;SDS011;6256;63.808;20.336;2023-07-31T11:43:34;1.77;;;0.98;;
12383;SDS011;6256;63.808;20.336;2023-07-31T11:46:01;1.45;;;1.20;;
12383;SDS011;6256;63.808;20.336;2023-07-31T11:48:35;1.90;;;1.13;;
12383;SDS011;6256;63.808;20.336;2023-07-31T11:51:05;1.77;;;1.02;;
12383;SDS011;6256;63.808;20.336;2023-07-31T11:53:42;1.20;;;1.10;;
12383;SDS011;6256;63.808;20.336;2023-07-31T11:56:09;3.60;;;1.45;;
12383;SDS011;6256;63.808;20.336;2023-07-31T11:58:37;1.35;;;1.25;;
12383;SDS011;6256;63.808;20.336;2023-07-31T12:01:03;1.40;;;1.30;;
12383;SDS011;6256;63.808;20.336;2023-07-31T12:03:30;1.60;;;1.50;;
12383;SDS011;6256;63.808;20.336;2023-07-31T12:05:57;1.52;;;1.20;;
12383;SDS011;6256;63.808;20.336;2023-07-31T12:08:24;1.80;;;1.50;;
12383;SDS011;6256;63.808;20.336;2023-07-31T12:10:50;1.75;;;1.52;;
12383;SDS011;6256;63.808;20.336;2023-07-31T12:13:24;1.80;;;1.60;;
12383;SDS011;6256;63.808;20.336;2023-07-31T12:15:55;2.42;;;1.73;;
12383;SDS011;6256;63.808;20.336;2023-07-31T12:18:26;2.13;;;1.40;;
12383;SDS011;6256;63.808;20.336;2023-07-31T12:20:53;2.08;;;1.52;;
12383;SDS011;6256;63.808;20.336;2023-07-31T12:23:21;2.17;;;1.85;;
12383;SDS011;6256;63.808;20.336;2023-07-31T12:26:13;1.70;;;1.60;;
12383;SDS011;6256;63.808;20.336;2023-07-31T12:28:41;2.60;;;1.58;;
12383;SDS011;6256;63.808;20.336;2023-07-31T12:31:11;3.15;;;1.77;;
12383;SDS011;6256;63.808;20.336;2023-07-31T12:33:38;1.70;;;1.60;;
12383;SDS011;6256;63.808;20.336;2023-07-31T12:36:15;1.83;;;1.73;;
12383;SDS011;6256;63.808;20.336;2023-07-31T12:38:51;2.17;;;1.70;;
12383;SDS011;6256;63.808;20.336;2023-07-31T12:41:17;2.08;;;1.73;;
12383;SDS011;6256;63.808;20.336;2023-07-31T12:43:43;1.73;;;1.63;;
12383;SDS011;6256;63.808;20.336;2023-07-31T12:46:10;1.58;;;1.35;;
12383;SDS011;6256;63.808;20.336;2023-07-31T12:48:36;1.70;;;1.48;;
12383;SDS011;6256;63.808;20.336;2023-07-31T12:51:03;2.20;;;1.42;;
12383;SDS011;6256;63.808;20.336;2023-07-31T12:53:29;2.25;;;1.55;;
12383;SDS011;6256;63.808;20.336;2023-07-31T12:55:55;2.10;;;1.60;;
12383;SDS011;6256;63.808;20.336;2023-07-31T12:58:22;1.50;;;1.40;;
12383;SDS011;6256;63.808;20.336;2023-07-31T13:00:48;1.48;;;1.23;;
12383;SDS011;6256;63.808;20.336;2023-07-31T13:03:14;1.52;;;1.38;;
12383;SDS011;6256;63.808;20.336;2023-07-31T13:05:39;2.20;;;1.48;;
12383;SDS011;6256;63.808;20.336;2023-07-31T13:08:05;1.60;;;1.40;;
12383;SDS011;6256;63.808;20.336;2023-07-31T13:10:31;1.60;;;1.42;;
12383;SDS011;6256;63.808;20.336;2023-07-31T13:12:56;1.50;;;1.40;;
12383;SDS011;6256;63.808;20.336;2023-07-31T13:15:22;1.75;;;1.27;;
12383;SDS011;6256;63.808;20.336;2023-07-31T13:17:48;1.67;;;1.58;;
12383;SDS011;6256;63.808;20.336;2023-07-31T13:20:14;1.88;;;1.67;;
12383;SDS011;6256;63.808;20.336;2023-07-31T13:22:39;1.30;;;1.20;;
12383;SDS011;6256;63.808;20.336;2023-07-31T13:25:05;1.60;;;1.50;;
12383;SDS011;6256;63.808;20.336;2023-07-31T13:27:31;1.60;;;1.50;;
12383;SDS011;6256;63.808;20.336;2023-07-31T13:29:57;1.40;;;1.30;;
12383;SDS011;6256;63.808;20.336;2023-07-31T13:32:23;2.10;;;1.50;;
12383;SDS011;6256;63.808;20.336;2023-07-31T13:34:49;1.90;;;1.40;;
12383;SDS011;6256;63.808;20.336;2023-07-31T13:37:15;1.92;;;1.60;;
12383;SDS011;6256;63.808;20.336;2023-07-31T13:39:41;1.35;;;1.10;;
12383;SDS011;6256;63.808;20.336;2023-07-31T13:42:08;1.88;;;1.40;;
12383;SDS011;6256;63.808;20.336;2023-07-31T13:44:37;2.22;;;1.55;;
12383;SDS011;6256;63.808;20.336;2023-07-31T13:47:03;1.30;;;1.20;;
12383;SDS011;6256;63.808;20.336;2023-07-31T13:49:32;2.13;;;1.40;;
12383;SDS011;6256;63.808;20.336;2023-07-31T13:51:59;1.60;;;1.33;;
12383;SDS011;6256;63.808;20.336;2023-07-31T13:54:25;1.90;;;1.00;;
12383;SDS011;6256;63.808;20.336;2023-07-31T13:56:51;1.50;;;1.15;;
12383;SDS011;6256;63.808;20.336;2023-07-31T13:59:17;1.25;;;1.05;;
12383;SDS011;6256;63.808;20.336;2023-07-31T14:01:44;1.25;;;1.10;;
12383;SDS011;6256;63.808;20.336;2023-07-31T14:04:09;1.48;;;1.38;;
12383;SDS011;6256;63.808;20.336;2023-07-31T14:06:35;1.25;;;1.05;;
12383;SDS011;6256;63.808;20.336;2023-07-31T14:09:01;1.13;;;1.02;;
12383;SDS011;6256;63.808;20.336;2023-07-31T14:11:31;2.03;;;1.17;;
12383;SDS011;6256;63.808;20.336;2023-07-31T14:13:57;1.20;;;1.10;;
12383;SDS011;6256;63.808;20.336;2023-07-31T14:16:23;1.27;;;1.17;;
12383;SDS011;6256;63.808;20.336;2023-07-31T14:18:49;1.23;;;1.13;;
12383;SDS011;6256;63.808;20.336;2023-07-31T14:21:15;2.45;;;1.20;;
12383;SDS011;6256;63.808;20.336;2023-07-31T14:23:41;1.30;;;1.10;;
12383;SDS011;6256;63.808;20.336;2023-07-31T14:26:07;1.27;;;1.17;;
12383;SDS011;6256;63.808;20.336;2023-07-31T14:28:33;1.48;;;1.38;;
12383;SDS011;6256;63.808;20.336;2023-07-31T14:30:59;1.00;;;1.00;;
12383;SDS011;6256;63.808;20.336;2023-07-31T14:33:25;1.10;;;1.00;;
12383;SDS011;6256;63.808;20.336;2023-07-31T14:35:51;2.30;;;1.20;;
12383;SDS011;6256;63.808;20.336;2023-07-31T14:38:16;1.35;;;1.08;;
12383;SDS011;6256;63.808;20.336;2023-07-31T14:40:42;1.10;;;0.90;;
12383;SDS011;6256;63.808;20.336;2023-07-31T14:43:08;0.90;;;0.90;;
12383;SDS011;6256;63.808;20.336;2023-07-31T14:45:33;1.17;;;1.00;;
12383;SDS011;6256;63.808;20.336;2023-07-31T14:47:59;1.20;;;1.10;;